Time;durP1;ratioP1;P1;durP2;ratioP2;P2;SDS_P1;SDS_P2;PMS_P1;PMS_P2;Temp;Humidity;BMP_temperature;BMP_pressure;BME280_temperature;BME280_humidity;BME280_pressure;Samples;Min_cycle;Max_cycle;Signal;HPM_P1;HPM_P2
2024/03/01 00:02:15;;;;;;;;;;;3.60;99.90;;;-146.41;100.00;57768.22;5041621;28;1409;-67
2024/03/01 00:04:42;;;;;;;;;;;3.70;99.90;;;-146.41;100.00;57768.22;5042701;28;1422;-67
2024/03/01 00:07:09;;;;;;;;;;;3.90;99.90;;;-146.41;100.00;57768.22;5044153;28;1640;-67
2024/03/01 00:09:36;;;;;;;;;;;4.00;99.90;;;-146.41;100.00;57768.22;5042893;28;1591;-67
2024/03/01 00:12:03;;;;;;;;;;;4.10;99.90;;;-146.41;100.00;57768.22;5043407;28;1859;-67
2024/03/01 00:14:29;;;;;;;;;;;4.20;99.90;;;-146.41;100.00;57768.22;5041897;28;1532;-67
2024/03/01 00:16:56;;;;;;;;;;;4.20;99.90;;;-146.41;100.00;57768.22;5043107;28;2037;-67
2024/03/01 00:19:23;;;;;;;;;;;4.10;99.90;;;-146.41;100.00;57768.22;5043564;28;1377;-67
2024/03/01 00:21:50;;;;;;;;;;;4.20;99.90;;;-146.41;100.00;57768.22;5043882;28;1595;-67
2024/03/01 00:24:17;;;;;;;;;;;4.10;99.90;;;-146.41;100.00;57768.22;5027304;28;1423;-67
2024/03/01 00:26:45;;;;;;;;;;;4.10;99.90;;;-146.41;100.00;57768.22;5042917;28;1387;-67
2024/03/01 00:29:12;;;;;;;;;;;4.10;99.90;;;-146.41;100.00;57768.22;5040512;28;1563;-68
2024/03/01 00:31:39;;;;;;;;;;;4.10;99.90;;;-146.41;100.00;57768.22;5042540;28;1488;-67
2024/03/01 00:34:06;;;;;;;;;;;4.30;99.90;;;-146.41;100.00;57768.22;5044394;28;1356;-67
2024/03/01 00:36:33;;;;;;;;;;;4.40;99.90;;;-146.41;100.00;57768.22;5044229;28;1914;-67
2024/03/01 00:39:00;;;;;;;;;;;4.50;99.90;;;-146.41;100.00;57768.22;5042676;28;2031;-68
2024/03/01 00:41:26;;;;;;;;;;;4.50;99.90;;;-146.41;100.00;57768.22;5058724;28;1423;-68
2024/03/01 00:43:55;;;;;;;;;;;4.60;99.90;;;-146.41;100.00;57768.22;5043924;28;1387;-67
2024/03/01 00:46:22;;;;;;;;;;;4.60;99.90;;;-146.41;100.00;57768.22;5042888;28;1675;-67
2024/03/01 00:48:49;;;;;;;;;;;4.70;99.90;;;-146.41;100.00;57768.22;5042917;28;1703;-67
2024/03/01 00:51:16;;;;;;;;;;;4.70;99.90;;;-146.41;100.00;57768.22;5042709;28;1563;-67
2024/03/01 00:53:43;;;;;;;;;;;4.80;99.90;;;-146.41;100.00;57768.22;5041434;28;2139;-67
2024/03/01 00:56:11;;;;;;;;;;;4.80;99.90;;;-146.41;100.00;57768.22;5042758;28;1914;-68
2024/03/01 00:58:38;;;;;;;;;;;4.90;99.90;;;-146.41;100.00;57768.22;5042556;28;1496;-67
2024/03/01 01:01:05;;;;;;;;;;;5.00;99.90;;;-146.41;100.00;57768.22;5041035;28;1508;-67
2024/03/01 01:03:32;;;;;;;;;;;5.10;99.90;;;-146.41;100.00;57768.22;5037864;28;1624;-67
2024/03/01 01:06:00;;;;;;;;;;;5.10;99.90;;;-146.41;100.00;57768.22;5042520;28;1330;-67
2024/03/01 01:08:27;;;;;;;;;;;5.20;99.90;;;-146.41;100.00;57768.22;5042442;28;1627;-67
2024/03/01 01:10:54;;;;;;;;;;;5.30;99.90;;;-146.41;100.00;57768.22;5040570;28;1461;-68
2024/03/01 01:13:21;;;;;;;;;;;5.30;99.90;;;-146.41;100.00;57768.22;5042016;28;1431;-67
2024/03/01 01:15:48;;;;;;;;;;;5.30;99.90;;;-146.41;100.00;57768.22;5043886;28;1918;-67
2024/03/01 01:18:16;;;;;;;;;;;5.30;99.90;;;-146.41;100.00;57768.22;5058260;28;1400;-67
2024/03/01 01:20:45;;;;;;;;;;;5.30;99.90;;;-146.41;100.00;57768.22;5042062;28;1436;-68
2024/03/01 01:23:12;;;;;;;;;;;5.40;99.90;;;-146.41;100.00;57768.22;5042044;28;1595;-67
2024/03/01 01:25:41;;;;;;;;;;;5.50;99.90;;;-146.41;100.00;57768.22;5039923;28;1518;-67
2024/03/01 01:28:08;;;;;;;;;;;5.50;99.90;;;-146.41;100.00;57768.22;5042426;28;1451;-68
2024/03/01 01:30:37;;;;;;;;;;;5.60;99.90;;;-146.41;100.00;57768.22;5040394;28;1666;-68
2024/03/01 01:33:04;;;;;;;;;;;5.50;99.90;;;-146.41;100.00;57768.22;5040143;28;1255;-68
2024/03/01 01:35:33;;;;;;;;;;;5.60;99.90;;;-146.41;100.00;57768.22;5053589;28;1907;-67
2024/03/01 01:38:00;;;;;;;;;;;5.70;99.90;;;-146.41;100.00;57768.22;5057777;28;1232;-68
2024/03/01 01:40:30;;;;;;;;;;;5.70;99.90;;;-146.41;100.00;57768.22;5040514;28;1383;-68
2024/03/01 01:43:01;;;;;;;;;;;5.70;99.90;;;-146.41;100.00;57768.22;5040209;28;1212;-68
2024/03/01 01:45:28;;;;;;;;;;;5.70;99.90;;;-146.41;100.00;57768.22;5036826;28;1072;-67
2024/03/01 01:47:56;;;;;;;;;;;5.70;99.90;;;-146.41;100.00;57768.22;5039634;28;1400;-68
2024/03/01 01:50:23;;;;;;;;;;;5.70;99.90;;;-146.41;100.00;57768.22;5039793;28;1442;-68
2024/03/01 01:52:50;;;;;;;;;;;5.70;99.90;;;-146.41;100.00;57768.22;5043265;28;1122;-68
2024/03/01 01:55:18;;;;;;;;;;;5.70;99.90;;;-146.41;100.00;57768.22;5035072;28;1251;-68
2024/03/01 01:57:45;;;;;;;;;;;5.70;99.90;;;-146.41;100.00;57768.22;5022912;28;1906;-68
2024/03/01 02:00:13;;;;;;;;;;;5.80;99.90;;;-146.41;100.00;57768.22;5037405;28;1343;-66
2024/03/01 02:02:41;;;;;;;;;;;5.70;99.90;;;-146.41;100.00;57768.22;5037980;28;1252;-68
2024/03/01 02:05:09;;;;;;;;;;;5.70;99.90;;;-146.41;100.00;57768.22;5040014;28;1235;-68
2024/03/01 02:07:36;;;;;;;;;;;5.70;99.90;;;-146.41;100.00;57768.22;5040438;28;1023;-68
2024/03/01 02:10:16;;;;;;;;;;;5.70;99.90;;;-146.41;100.00;57768.22;5035877;28;1457;-68
2024/03/01 02:12:54;;;;;;;;;;;5.80;99.90;;;-146.41;100.00;57768.22;5038980;28;1402;-68
2024/03/01 02:15:23;;;;;;;;;;;5.80;99.90;;;-146.41;100.00;57768.22;5038194;28;1161;-68
2024/03/01 02:17:50;;;;;;;;;;;5.80;99.90;;;-146.41;100.00;57768.22;5040082;28;1899;-68
2024/03/01 02:20:21;;;;;;;;;;;5.80;99.90;;;-146.41;100.00;57768.22;5038453;28;1374;-66
2024/03/01 02:22:52;;;;;;;;;;;5.80;99.90;;;-146.41;100.00;57768.22;5037994;28;1140;-66
2024/03/01 02:25:20;;;;;;;;;;;5.80;99.90;;;-146.41;100.00;57768.22;5036248;28;1285;-66
2024/03/01 02:27:47;;;;;;;;;;;5.70;99.90;;;-146.41;100.00;57768.22;5040260;28;1200;-68
2024/03/01 02:30:15;;;;;;;;;;;5.60;99.90;;;-146.41;100.00;57768.22;5039839;28;1267;-67
2024/03/01 02:32:42;;;;;;;;;;;5.60;99.90;;;-146.41;100.00;57768.22;5039960;28;1129;-67
2024/03/01 02:35:09;;;;;;;;;;;5.70;99.90;;;-146.41;100.00;57768.22;5037768;28;1275;-68
2024/03/01 02:37:36;;;;;;;;;;;5.60;99.90;;;-146.41;100.00;57768.22;5040762;28;1921;-68
2024/03/01 02:40:03;;;;;;;;;;;5.60;99.90;;;-146.41;100.00;57768.22;5036070;28;1486;-67
2024/03/01 02:42:34;;;;;;;;;;;5.70;99.90;;;-146.41;100.00;57768.22;5040256;28;1172;-69
2024/03/01 02:45:02;;;;;;;;;;;5.60;99.90;;;-146.41;100.00;57768.22;5040326;28;1030;-68
2024/03/01 02:47:29;;;;;;;;;;;5.70;99.90;;;-146.41;100.00;57768.22;5051546;28;1043;-67
2024/03/01 02:49:56;;;;;;;;;;;5.60;99.90;;;-146.41;100.00;57768.22;5036813;28;1295;-67
2024/03/01 02:52:23;;;;;;;;;;;5.60;99.90;;;-146.41;100.00;57768.22;5037740;28;1185;-68
2024/03/01 02:54:50;;;;;;;;;;;5.50;99.90;;;-146.41;100.00;57768.22;5039830;28;1042;-68
2024/03/01 02:57:16;;;;;;;;;;;5.60;99.90;;;-146.41;100.00;57768.22;5040466;28;1886;-67
2024/03/01 02:59:43;;;;;;;;;;;5.60;99.90;;;-146.41;100.00;57768.22;5037530;28;1280;-67
2024/03/01 03:02:10;;;;;;;;;;;5.60;99.90;;;-146.41;100.00;57768.22;5036524;28;1382;-67
2024/03/01 03:04:38;;;;;;;;;;;5.60;99.90;;;-146.41;100.00;57768.22;5038502;28;1144;-67
2024/03/01 03:07:05;;;;;;;;;;;5.60;99.90;;;-146.41;100.00;57768.22;5039840;28;1486;-67
2024/03/01 03:09:43;;;;;;;;;;;5.60;99.90;;;-146.41;100.00;57768.22;5039330;28;1168;-68
2024/03/01 03:12:12;;;;;;;;;;;5.60;99.90;;;-146.41;100.00;57768.22;5038167;28;1296;-68
2024/03/01 03:14:39;;;;;;;;;;;5.70;99.90;;;-146.41;100.00;57768.22;5050424;28;1375;-67
2024/03/01 03:17:06;;;;;;;;;;;5.70;99.90;;;-146.41;100.00;57768.22;5038148;28;1995;-68
2024/03/01 03:19:34;;;;;;;;;;;5.70;99.90;;;-146.41;100.00;57768.22;5037717;28;1191;-68
2024/03/01 03:22:08;;;;;;;;;;;5.80;99.90;;;-146.41;100.00;57768.22;5034042;28;1412;-67
2024/03/01 03:24:38;;;;;;;;;;;5.80;99.90;;;-146.41;100.00;57768.22;5039608;28;1204;-68
2024/03/01 03:27:06;;;;;;;;;;;5.80;99.90;;;-146.41;100.00;57768.22;5036649;28;1109;-67
2024/03/01 03:29:33;;;;;;;;;;;5.80;99.90;;;-146.41;100.00;57768.22;5040050;28;1032;-67
2024/03/01 03:32:00;;;;;;;;;;;5.80;99.90;;;-146.41;100.00;57768.22;5042312;28;1312;-68
2024/03/01 03:34:27;;;;;;;;;;;5.80;99.90;;;-146.41;100.00;57768.22;5039081;28;1034;-68
2024/03/01 03:36:53;;;;;;;;;;;5.90;99.90;;;-146.41;100.00;57768.22;5041990;28;1905;-67
2024/03/01 03:39:20;;;;;;;;;;;6.00;99.90;;;-146.41;100.00;57768.22;5042743;28;1390;-68
2024/03/01 03:41:47;;;;;;;;;;;6.10;99.90;;;-146.41;100.00;57768.22;5041420;28;1457;-68
2024/03/01 03:44:14;;;;;;;;;;;6.10;99.90;;;-146.41;100.00;57768.22;5039071;28;1273;-67
2024/03/01 03:46:41;;;;;;;;;;;6.20;99.90;;;-146.41;100.00;57768.22;5036628;28;1355;-67
2024/03/01 03:49:10;;;;;;;;;;;6.20;99.90;;;-146.41;100.00;57768.22;5042667;28;1173;-67
2024/03/01 03:51:55;;;;;;;;;;;6.20;99.90;;;-146.41;100.00;57768.22;5042642;28;1434;-68
2024/03/01 03:54:21;;;;;;;;;;;6.10;99.90;;;-146.41;100.00;57768.22;5040634;28;1376;-68
2024/03/01 03:56:48;;;;;;;;;;;6.20;99.90;;;-146.41;100.00;57768.22;5055949;28;1910;-68
2024/03/01 03:59:15;;;;;;;;;;;6.20;99.90;;;-146.41;100.00;57768.22;5040665;28;1053;-68
2024/03/01 04:01:42;;;;;;;;;;;6.20;99.90;;;-146.41;100.00;57768.22;5043972;28;1320;-68
2024/03/01 04:04:09;;;;;;;;;;;6.20;99.90;;;-146.41;100.00;57768.22;5042320;28;1220;-68
2024/03/01 04:06:36;;;;;;;;;;;6.20;99.90;;;-146.41;100.00;57768.22;5041231;28;1195;-67
2024/03/01 04:09:03;;;;;;;;;;;6.00;99.90;;;-146.41;100.00;57768.22;5041184;28;1159;-68
2024/03/01 04:11:30;;;;;;;;;;;5.90;99.90;;;-146.41;100.00;57768.22;5042377;28;1374;-67
2024/03/01 04:13:57;;;;;;;;;;;5.90;99.90;;;-146.41;100.00;57768.22;5058498;28;1379;-67
2024/03/01 04:16:24;;;;;;;;;;;5.80;99.90;;;-146.41;100.00;57768.22;5041298;28;1930;-68
2024/03/01 04:18:51;;;;;;;;;;;5.80;99.90;;;-146.41;100.00;57768.22;5040239;28;1037;-67
2024/03/01 04:21:17;;;;;;;;;;;5.70;99.90;;;-146.41;100.00;57768.22;5040698;28;1296;-68
2024/03/01 04:23:44;;;;;;;;;;;5.70;99.90;;;-146.41;100.00;57768.22;5039358;28;1053;-68
2024/03/01 04:26:11;;;;;;;;;;;5.50;99.90;;;-146.41;100.00;57768.22;5041156;28;1157;-68
2024/03/01 04:28:41;;;;;;;;;;;5.40;99.90;;;-146.41;100.00;57768.22;5041061;28;1347;-67
2024/03/01 04:31:08;;;;;;;;;;;5.40;99.90;;;-146.41;100.00;57768.22;5041472;28;1370;-67
2024/03/01 04:33:39;;;;;;;;;;;5.40;99.90;;;-146.41;100.00;57768.22;5040153;28;1193;-67
2024/03/01 04:36:06;;;;;;;;;;;5.40;99.90;;;-146.41;100.00;57768.22;5041834;28;1134;-68
2024/03/01 04:38:33;;;;;;;;;;;5.40;99.90;;;-146.41;100.00;57768.22;5040267;28;1910;-68
2024/03/01 04:41:00;;;;;;;;;;;5.50;99.90;;;-146.41;100.00;57768.22;5038215;28;1406;-68
2024/03/01 04:43:27;;;;;;;;;;;5.50;99.90;;;-146.41;100.00;57768.22;5037640;28;1875;-68
2024/03/01 04:45:55;;;;;;;;;;;5.40;99.90;;;-146.41;100.00;57768.22;5041335;28;1173;-68
2024/03/01 04:48:21;;;;;;;;;;;5.40;99.90;;;-146.41;100.00;57768.22;5040669;28;1055;-68
2024/03/01 04:50:48;;;;;;;;;;;5.40;99.90;;;-146.41;100.00;57768.22;5038467;28;1319;-67
2024/03/01 04:53:15;;;;;;;;;;;5.40;99.90;;;-146.41;100.00;57768.22;5042121;28;1177;-67
2024/03/01 04:55:42;;;;;;;;;;;5.40;99.90;;;-146.41;100.00;57768.22;5042208;28;1363;-68
2024/03/01 04:58:09;;;;;;;;;;;5.40;99.90;;;-146.41;100.00;57768.22;5039792;28;1910;-68
2024/03/01 05:00:36;;;;;;;;;;;5.20;99.90;;;-146.41;100.00;57768.22;5039594;28;1311;-68
2024/03/01 05:03:06;;;;;;;;;;;5.20;99.90;;;-146.41;100.00;57768.22;5040712;28;1204;-68
2024/03/01 05:05:34;;;;;;;;;;;5.20;99.90;;;-146.41;100.00;57768.22;5039681;28;1079;-68
2024/03/01 05:08:02;;;;;;;;;;;5.20;99.90;;;-146.41;100.00;57768.22;5043348;28;1315;-68
2024/03/01 05:10:29;;;;;;;;;;;5.20;99.90;;;-146.41;100.00;57768.22;5044235;28;1412;-67
2024/03/01 05:12:56;;;;;;;;;;;5.20;99.90;;;-146.41;100.00;57768.22;5039904;28;1276;-68
2024/03/01 05:15:23;;;;;;;;;;;5.20;99.90;;;-146.41;100.00;57768.22;5036551;28;1323;-68
2024/03/01 05:17:50;;;;;;;;;;;5.20;99.90;;;-146.41;100.00;57768.22;5043718;28;1906;-67
2024/03/01 05:20:19;;;;;;;;;;;5.20;99.90;;;-146.41;100.00;57768.22;5043051;28;1903;-67
2024/03/01 05:22:46;;;;;;;;;;;5.30;99.90;;;-146.41;100.00;57768.22;5040280;28;1415;-68
2024/03/01 05:25:15;;;;;;;;;;;5.30;99.90;;;-146.41;100.00;57768.22;5041083;28;1391;-68
2024/03/01 05:27:45;;;;;;;;;;;5.40;99.90;;;-146.41;100.00;57768.22;5038480;28;1542;-68
2024/03/01 05:30:15;;;;;;;;;;;5.40;99.90;;;-146.41;100.00;57768.22;5038721;28;1315;-68
2024/03/01 05:32:54;;;;;;;;;;;5.40;99.90;;;-146.41;100.00;57768.22;5041542;28;1169;-67
2024/03/01 05:35:21;;;;;;;;;;;5.40;99.90;;;-146.41;100.00;57768.22;5042191;28;1129;-67
2024/03/01 05:37:48;;;;;;;;;;;5.40;99.90;;;-146.41;100.00;57768.22;5039164;28;1991;-67
2024/03/01 05:40:16;;;;;;;;;;;5.40;99.90;;;-146.41;100.00;57768.22;5041355;28;1336;-68
2024/03/01 05:42:44;;;;;;;;;;;5.40;99.90;;;-146.41;100.00;57768.22;5035258;28;1145;-67
2024/03/01 05:45:11;;;;;;;;;;;5.40;99.90;;;-146.41;100.00;57768.22;5042787;28;1298;-67
2024/03/01 05:47:40;;;;;;;;;;;5.40;99.90;;;-146.41;100.00;57768.22;5039998;28;1122;-68
2024/03/01 05:50:09;;;;;;;;;;;5.50;99.90;;;-146.41;100.00;57768.22;5041658;28;1405;-68
2024/03/01 05:52:36;;;;;;;;;;;5.50;99.90;;;-146.41;100.00;57768.22;5038805;28;1240;-68
2024/03/01 05:55:03;;;;;;;;;;;5.60;99.90;;;-146.41;100.00;57768.22;5052444;28;1124;-68
2024/03/01 05:57:31;;;;;;;;;;;5.60;99.90;;;-146.41;100.00;57768.22;5035793;28;1961;-67
2024/03/01 05:59:58;;;;;;;;;;;5.60;99.90;;;-146.41;100.00;57768.22;5038608;28;1950;-68
2024/03/01 06:02:25;;;;;;;;;;;5.70;99.90;;;-146.41;100.00;57768.22;5042996;28;1391;-68
2024/03/01 06:04:52;;;;;;;;;;;5.70;99.90;;;-146.41;100.00;57768.22;5038869;28;1352;-68
2024/03/01 06:07:19;;;;;;;;;;;5.70;99.90;;;-146.41;100.00;57768.22;5038800;28;1177;-68
2024/03/01 06:09:46;;;;;;;;;;;5.80;99.90;;;-146.41;100.00;57768.22;5037785;28;1177;-68
2024/03/01 06:12:12;;;;;;;;;;;5.80;99.90;;;-146.41;100.00;57768.22;5034101;28;1339;-67
2024/03/01 06:14:39;;;;;;;;;;;5.80;99.90;;;-146.41;100.00;57768.22;5040806;28;1193;-68
2024/03/01 06:17:06;;;;;;;;;;;5.90;99.90;;;-146.41;100.00;57768.22;5036668;28;1902;-66
2024/03/01 06:19:33;;;;;;;;;;;5.90;99.90;;;-146.41;100.00;57768.22;5037870;28;1296;-68
2024/03/01 06:22:00;;;;;;;;;;;5.90;99.90;;;-146.41;100.00;57768.22;5037555;28;1295;-68
2024/03/01 06:24:26;;;;;;;;;;;6.00;99.90;;;-146.41;100.00;57768.22;5038053;28;1422;-68
2024/03/01 06:26:55;;;;;;;;;;;6.00;99.90;;;-146.41;100.00;57768.22;5040343;28;1148;-67
2024/03/01 06:29:21;;;;;;;;;;;6.00;99.90;;;-146.41;100.00;57768.22;5038294;28;1181;-68
2024/03/01 06:31:49;;;;;;;;;;;6.10;99.90;;;-146.41;100.00;57768.22;5038233;28;1343;-67
2024/03/01 06:34:16;;;;;;;;;;;6.10;99.90;;;-146.41;100.00;57768.22;5038586;28;1169;-68
2024/03/01 06:36:43;;;;;;;;;;;6.10;99.90;;;-146.41;100.00;57768.22;5037793;28;1177;-67
2024/03/01 06:39:10;;;;;;;;;;;6.10;99.90;;;-146.41;100.00;57768.22;5039324;28;1902;-67
2024/03/01 06:41:37;;;;;;;;;;;6.10;99.90;;;-146.41;100.00;57768.22;5037199;28;1315;-68
2024/03/01 06:44:04;;;;;;;;;;;6.10;99.90;;;-146.41;100.00;57768.22;5040278;28;1201;-67
2024/03/01 06:46:31;;;;;;;;;;;6.10;99.90;;;-146.41;100.00;57768.22;5039369;28;1141;-68
2024/03/01 06:49:00;;;;;;;;;;;6.10;99.90;;;-146.41;100.00;57768.22;5036385;28;1141;-68
2024/03/01 06:51:29;;;;;;;;;;;6.10;99.90;;;-146.41;100.00;57768.22;5035755;28;1331;-68
2024/03/01 06:53:56;;;;;;;;;;;6.20;99.90;;;-146.41;100.00;57768.22;5036505;28;1859;-68
2024/03/01 06:56:23;;;;;;;;;;;6.20;99.90;;;-146.41;100.00;57768.22;5038502;28;1080;-68
2024/03/01 06:58:50;;;;;;;;;;;6.30;99.90;;;-146.41;100.00;57768.22;5039335;28;1967;-67
2024/03/01 07:01:17;;;;;;;;;;;6.30;99.90;;;-146.41;100.00;57768.22;5041015;28;1394;-68
2024/03/01 07:03:43;;;;;;;;;;;6.40;99.90;;;-146.41;100.00;57768.22;5038460;28;1228;-68
2024/03/01 07:06:11;;;;;;;;;;;6.40;99.90;;;-146.41;100.00;57768.22;5045518;28;1058;-66
2024/03/01 07:08:40;;;;;;;;;;;6.50;99.90;;;-146.41;100.00;57768.22;5039002;28;1352;-68
2024/03/01 07:11:08;;;;;;;;;;;6.50;99.90;;;-146.41;100.00;57768.22;5036232;28;1458;-68
2024/03/01 07:13:35;;;;;;;;;;;6.50;99.90;;;-146.41;100.00;57768.22;5041986;28;1065;-68
2024/03/01 07:16:02;;;;;;;;;;;6.50;99.90;;;-146.41;100.00;57768.22;5043834;28;1277;-67
2024/03/01 07:18:29;;;;;;;;;;;6.60;99.90;;;-146.41;100.00;57768.22;5042221;28;1894;-68
2024/03/01 07:20:56;;;;;;;;;;;6.60;99.90;;;-146.41;100.00;57768.22;5042445;28;1402;-68
2024/03/01 07:23:22;;;;;;;;;;;6.70;99.90;;;-146.41;100.00;57768.22;5044199;28;1228;-68
2024/03/01 07:25:49;;;;;;;;;;;6.70;99.90;;;-146.41;100.00;57768.22;5039702;28;994;-68
2024/03/01 07:28:16;;;;;;;;;;;6.70;99.90;;;-146.41;100.00;57768.22;5040525;28;1042;-67
2024/03/01 07:30:43;;;;;;;;;;;6.70;99.90;;;-146.41;100.00;57768.22;5040967;28;1371;-68
2024/03/01 07:33:10;;;;;;;;;;;6.70;99.90;;;-146.41;100.00;57768.22;5043728;28;1255;-68
2024/03/01 07:35:37;;;;;;;;;;;6.80;99.90;;;-146.41;100.00;57768.22;5039795;28;1171;-68
2024/03/01 07:38:04;;;;;;;;;;;6.80;99.90;;;-146.41;100.00;57768.22;5043546;28;1981;-67
2024/03/01 07:40:31;;;;;;;;;;;6.90;99.90;;;-146.41;100.00;57768.22;5043481;28;1316;-68
2024/03/01 07:42:58;;;;;;;;;;;7.00;99.90;;;-146.41;100.00;57768.22;5043183;28;1054;-67
2024/03/01 07:45:25;;;;;;;;;;;7.00;99.90;;;-146.41;100.00;57768.22;5039504;28;1257;-67
2024/03/01 07:47:51;;;;;;;;;;;7.00;99.90;;;-146.41;100.00;57768.22;5046190;28;1149;-68
2024/03/01 07:50:20;;;;;;;;;;;6.90;99.90;;;-146.41;100.00;57768.22;5057352;28;1526;-68
2024/03/01 07:52:46;;;;;;;;;;;6.90;99.90;;;-146.41;100.00;57768.22;5042374;28;1514;-68
2024/03/01 07:55:13;;;;;;;;;;;7.00;99.90;;;-146.41;100.00;57768.22;5041745;28;1193;-67
2024/03/01 07:57:40;;;;;;;;;;;7.00;99.90;;;-146.41;100.00;57768.22;5038862;28;1898;-68
2024/03/01 08:00:08;;;;;;;;;;;7.00;99.90;;;-146.41;100.00;57768.22;5043400;28;1739;-68
2024/03/01 08:02:34;;;;;;;;;;;7.00;99.90;;;-146.41;100.00;57768.22;5040446;28;1264;-68
2024/03/01 08:05:01;;;;;;;;;;;7.10;99.90;;;-146.41;100.00;57768.22;5040394;28;1249;-67
2024/03/01 08:07:28;;;;;;;;;;;7.10;99.90;;;-146.41;100.00;57768.22;5038980;28;1057;-68
2024/03/01 08:09:55;;;;;;;;;;;7.10;99.90;;;-146.41;100.00;57768.22;5037560;28;1459;-67
2024/03/01 08:12:22;;;;;;;;;;;7.20;99.90;;;-146.41;100.00;57768.22;5041730;28;1468;-68
2024/03/01 08:14:50;;;;;;;;;;;7.20;99.90;;;-146.41;100.00;57768.22;5038058;28;1491;-68
2024/03/01 08:17:18;;;;;;;;;;;7.10;99.90;;;-146.41;100.00;57768.22;5040531;28;2009;-68
2024/03/01 08:19:47;;;;;;;;;;;7.00;99.90;;;-146.41;100.00;57768.22;5042302;28;1258;-68
2024/03/01 08:22:16;;;;;;;;;;;7.10;99.90;;;-146.41;100.00;57768.22;5042577;28;1429;-68
2024/03/01 08:24:47;;;;;;;;;;;7.10;99.90;;;-146.41;100.00;57768.22;5042081;28;1375;-67
2024/03/01 08:27:24;;;;;;;;;;;7.00;99.90;;;-146.41;100.00;57768.22;5043226;28;1317;-68
2024/03/01 08:29:51;;;;;;;;;;;7.00;99.90;;;-146.41;100.00;57768.22;5038098;28;1200;-68
2024/03/01 08:32:27;;;;;;;;;;;6.90;99.90;;;-146.41;100.00;57768.22;5044337;28;1428;-68
2024/03/01 08:34:55;;;;;;;;;;;6.90;99.90;;;-146.41;100.00;57768.22;5039024;28;1034;-68
2024/03/01 08:37:24;;;;;;;;;;;6.80;99.90;;;-146.41;100.00;57768.22;5053759;28;1902;-68
2024/03/01 08:39:53;;;;;;;;;;;6.80;99.90;;;-146.41;100.00;57768.22;5040338;28;1256;-68
2024/03/01 08:42:21;;;;;;;;;;;6.80;99.90;;;-146.41;100.00;57768.22;5039672;28;1343;-68
2024/03/01 08:44:54;;;;;;;;;;;6.80;99.90;;;-146.41;100.00;57768.22;5039335;28;1076;-68
2024/03/01 08:47:34;;;;;;;;;;;6.80;99.90;;;-146.41;100.00;57768.22;5040019;28;1125;-67
2024/03/01 08:50:22;;;;;;;;;;;6.80;99.90;;;-146.41;100.00;57768.22;5038729;28;1236;-68
2024/03/01 08:52:49;;;;;;;;;;;6.80;99.90;;;-146.41;100.00;57768.22;5039003;28;1569;-68
2024/03/01 08:55:16;;;;;;;;;;;6.80;99.90;;;-146.41;100.00;57768.22;5037660;28;1119;-68
2024/03/01 08:57:47;;;;;;;;;;;6.90;99.90;;;-146.41;100.00;57768.22;5040921;28;1898;-67
2024/03/01 09:00:20;;;;;;;;;;;6.80;99.90;;;-146.41;100.00;57768.22;5052923;28;1228;-67
2024/03/01 09:02:48;;;;;;;;;;;6.90;99.90;;;-146.41;100.00;57768.22;5042112;28;1241;-67
2024/03/01 09:05:15;;;;;;;;;;;6.90;99.90;;;-146.41;100.00;57768.22;5041220;28;1273;-67
2024/03/01 09:07:43;;;;;;;;;;;6.80;99.90;;;-146.41;100.00;57768.22;5038764;28;1470;-67
2024/03/01 09:10:18;;;;;;;;;;;6.70;99.90;;;-146.41;100.00;57768.22;5040330;28;1303;-67
2024/03/01 09:12:45;;;;;;;;;;;6.60;99.90;;;-146.41;100.00;57768.22;5041071;28;1392;-67
2024/03/01 09:15:14;;;;;;;;;;;6.60;99.90;;;-146.41;100.00;57768.22;5039077;28;1245;-69
2024/03/01 09:17:41;;;;;;;;;;;6.60;99.90;;;-146.41;100.00;57768.22;5051790;28;2015;-68
2024/03/01 09:20:37;;;;;;;;;;;6.50;99.90;;;-146.41;100.00;57768.22;5038905;28;1331;-68
2024/03/01 09:23:06;;;;;;;;;;;6.60;99.90;;;-146.41;100.00;57768.22;5042507;28;1224;-68
2024/03/01 09:25:48;;;;;;;;;;;6.50;99.90;;;-146.41;100.00;57768.22;5029129;28;1984;-67
2024/03/01 09:28:16;;;;;;;;;;;6.40;99.90;;;-146.41;100.00;57768.22;5038481;28;1621;-68
2024/03/01 09:30:50;;;;;;;;;;;6.30;99.90;;;-146.41;100.00;57768.22;5051733;28;1383;-68
2024/03/01 09:33:21;;;;;;;;;;;6.30;99.90;;;-146.41;100.00;57768.22;5047904;28;1034;-68
2024/03/01 09:35:52;;;;;;;;;;;6.30;99.90;;;-146.41;100.00;57768.22;5049027;28;1106;-68
2024/03/01 09:38:22;;;;;;;;;;;6.40;99.90;;;-146.41;100.00;57768.22;5045931;28;1902;-67
2024/03/01 09:40:49;;;;;;;;;;;6.50;99.90;;;-146.41;100.00;57768.22;5046265;28;1347;-67
2024/03/01 09:43:35;;;;;;;;;;;6.50;99.90;;;-146.41;100.00;57768.22;5047733;28;1073;-68
2024/03/01 09:46:06;;;;;;;;;;;6.50;99.90;;;-146.41;100.00;57768.22;5056200;28;1073;-68
2024/03/01 09:48:51;;;;;;;;;;;6.50;99.90;;;-146.41;100.00;57768.22;5062701;28;1232;-68
2024/03/01 09:51:22;;;;;;;;;;;6.50;99.90;;;-146.41;100.00;57768.22;5043395;28;1430;-68
2024/03/01 09:54:09;;;;;;;;;;;6.60;99.90;;;-146.41;100.00;57768.22;5045816;28;1303;-67
2024/03/01 09:57:00;;;;;;;;;;;6.50;99.90;;;-146.41;100.00;57768.22;5047431;28;1126;-67
2024/03/01 09:59:47;;;;;;;;;;;6.50;99.90;;;-146.41;100.00;57768.22;5042989;28;1902;-67
2024/03/01 10:02:22;;;;;;;;;;;6.40;99.90;;;-146.41;100.00;57768.22;5044622;28;1394;-67
2024/03/01 10:05:00;;;;;;;;;;;6.30;99.90;;;-146.41;100.00;57768.22;5047700;28;1268;-67
2024/03/01 10:07:44;;;;;;;;;;;6.40;99.90;;;-146.41;100.00;57768.22;5054095;28;1176;-67
2024/03/01 10:10:34;;;;;;;;;;;6.50;99.90;;;-146.41;100.00;57768.22;5046134;28;1261;-67
2024/03/01 10:13:35;;;;;;;;;;;6.50;99.90;;;-146.41;100.00;57768.22;5048983;28;1263;-67
2024/03/01 10:16:14;;;;;;;;;;;6.60;99.90;;;-146.41;100.00;57768.22;5016699;28;1366;-67
2024/03/01 10:19:13;;;;;;;;;;;6.80;99.90;;;-146.41;100.00;57768.22;5059368;28;1906;-67
2024/03/01 10:22:19;;;;;;;;;;;7.00;99.90;;;-146.41;100.00;57768.22;5026168;28;1291;-66
2024/03/01 10:25:07;;;;;;;;;;;7.10;99.90;;;-146.41;100.00;57768.22;5051164;28;1910;-67
2024/03/01 10:27:36;;;;;;;;;;;7.20;99.90;;;-146.41;100.00;57768.22;5046425;28;1208;-67
2024/03/01 10:30:13;;;;;;;;;;;7.50;99.90;;;-146.41;100.00;57768.22;5048506;28;1504;-67
2024/03/01 10:32:45;;;;;;;;;;;7.50;99.90;;;-146.41;100.00;57768.22;5043182;28;1393;-67
2024/03/01 10:35:24;;;;;;;;;;;7.50;99.90;;;-146.41;100.00;57768.22;5047366;28;1416;-67
2024/03/01 10:38:00;;;;;;;;;;;7.20;99.90;;;-146.41;100.00;57768.22;5046325;28;1358;-67
2024/03/01 10:40:35;;;;;;;;;;;7.10;99.90;;;-146.41;100.00;57768.22;5043481;28;1316;-67
2024/03/01 10:43:20;;;;;;;;;;;7.00;99.90;;;-146.41;100.00;57768.22;5044743;28;1279;-67
2024/03/01 10:46:00;;;;;;;;;;;7.00;99.90;;;-146.41;100.00;57768.22;5044911;28;1244;-67
2024/03/01 10:48:35;;;;;;;;;;;6.90;99.90;;;-146.41;100.00;57768.22;5043564;28;1284;-67
2024/03/01 10:51:03;;;;;;;;;;;6.90;99.90;;;-146.41;100.00;57768.22;5044246;28;1433;-67
2024/03/01 10:53:34;;;;;;;;;;;6.90;99.90;;;-146.41;100.00;57768.22;5059518;28;1149;-67
2024/03/01 10:56:08;;;;;;;;;;;6.80;99.90;;;-146.41;100.00;57768.22;5043750;28;1503;-67
2024/03/01 10:58:44;;;;;;;;;;;6.90;99.90;;;-146.41;100.00;57768.22;5044006;28;2021;-67
2024/03/01 11:01:22;;;;;;;;;;;6.70;99.90;;;-146.41;100.00;57768.22;5040907;28;1509;-67
2024/03/01 11:03:55;;;;;;;;;;;6.80;99.90;;;-146.41;100.00;57768.22;5039829;28;1240;-67
2024/03/01 11:06:44;;;;;;;;;;;6.80;99.90;;;-146.41;100.00;57768.22;5054019;28;1366;-68
2024/03/01 11:09:21;;;;;;;;;;;6.90;99.90;;;-146.41;100.00;57768.22;5036183;28;1299;-67
2024/03/01 11:11:52;;;;;;;;;;;7.00;99.90;;;-146.41;100.00;57768.22;5054055;28;1450;-67
2024/03/01 11:14:20;;;;;;;;;;;7.10;99.90;;;-146.41;100.00;57768.22;5052186;28;1360;-67
2024/03/01 11:16:49;;;;;;;;;;;7.30;99.90;;;-146.41;100.00;57768.22;5038906;28;1078;-67
2024/03/01 11:19:20;;;;;;;;;;;7.40;99.90;;;-146.41;100.00;57768.22;5034663;28;1926;-66
2024/03/01 11:21:53;;;;;;;;;;;7.60;99.90;;;-146.41;100.00;57768.22;5025955;28;1403;-67